Pagina principale
METAR-TAF:

METAR-TAF

Aeroporti :

Aeroporto di Irkutsk

Irkutsk, Russia

latitudine: 52-16N, longitudine: 104-19E, altezza: 513 m

Osservazione

Il bollettino è stato emesso 43 minuti fa, alle 23:00 UTC
Vento 2 kt da est/nord-est
Temperature -2°C
Umidità 100%
Pressione 1026 hPa
Visibilità 10 km o più
nessuna nube inferiore a 1500 m e nessun cumulonembo

METAR: UIII 212300Z 07001MPS CAVOK M02/M02 Q1026 R12/60D NOSIG RMK QFE727/0969

Ora: 07:43 (23:43 UTC)

Previsione

Il bollettino è stato emesso 43 minuti fa, alle 23:00 UTC
Previsione valida dal 22 alle 00 UTC al 22 alle 24 UTC
Vento 6 kt da sud/sud-est
Visibilità 10 km o più

TAF: UIII 212300Z 2200/2224 16003MPS 9999 NSC

Osservazioni e previsioni meteorologiche di più di 4000 aeroporti (messaggi METAR e TAF).

Le stazioni disponibili sono rappresentate dai dischi gialli e rossi sulla carta.

Puntare il mouse per vedere il nome della stazione.

Clicca sopra per visualizzare le osservazioni e previsioni meteorologiche.

Per cambiare la mappa : fare clic sui pulsanti verdi con una croce nera per ingrandire, il pulsante verde con un trattino per diminuire, o sulla freccia verde per le mappe adiacenti.


METAR-TAF: